createdAt,value
2023-03-30T00:00:48.957Z,93.86
2023-03-30T00:03:19.545Z,94.07
2023-03-30T00:05:50.029Z,94.64
2023-03-30T00:08:18.443Z,92.25
2023-03-30T00:10:46.207Z,90.79
2023-03-30T00:13:14.605Z,91.79
2023-03-30T00:15:42.302Z,93.82
2023-03-30T00:18:10.689Z,94.06
2023-03-30T00:20:42.909Z,94.12
2023-03-30T00:23:12.176Z,92.19
2023-03-30T00:25:39.891Z,90.81
2023-03-30T00:28:07.821Z,90.61
2023-03-30T00:30:37.050Z,89.05
2023-03-30T00:33:05.300Z,90.29
2023-03-30T00:35:33.110Z,90.97
2023-03-30T00:38:03.148Z,90.38
2023-03-30T00:40:33.626Z,90.25
2023-03-30T00:43:01.688Z,88.13
2023-03-30T00:45:30.820Z,89.13
2023-03-30T00:48:01.861Z,88.62
2023-03-30T00:50:35.621Z,89.44
2023-03-30T00:53:08.408Z,88.08
2023-03-30T00:55:38.992Z,86.74
2023-03-30T00:58:09.860Z,88.71
2023-03-30T01:00:39.696Z,89.04
2023-03-30T01:03:13.256Z,88.03
2023-03-30T01:05:42.440Z,87.61
2023-03-30T01:08:14.058Z,88.04
2023-03-30T01:10:43.799Z,85.75
2023-03-30T01:13:11.988Z,84.45
2023-03-30T01:15:42.785Z,87.50
2023-03-30T01:18:19.702Z,87.50
2023-03-30T01:21:15.972Z,86.62
2023-03-30T01:23:58.639Z,82.63
2023-03-30T01:26:45.338Z,82.46
2023-03-30T01:29:18.672Z,80.27
2023-03-30T01:32:02.384Z,81.65
2023-03-30T01:34:43.806Z,80.30
2023-03-30T01:37:38.810Z,79.70
2023-03-30T01:40:11.320Z,78.26
2023-03-30T01:42:42.109Z,76.74
2023-03-30T01:45:14.435Z,76.40
2023-03-30T01:47:46.458Z,75.05
2023-03-30T01:50:16.530Z,73.99
2023-03-30T01:52:53.811Z,75.59
2023-03-30T01:55:26.005Z,73.40
2023-03-30T01:57:58.633Z,75.08
2023-03-30T02:00:27.731Z,73.33
2023-03-30T02:02:58.453Z,70.83
2023-03-30T02:05:28.061Z,72.41
2023-03-30T02:07:57.330Z,72.41
2023-03-30T02:10:28.977Z,73.31
2023-03-30T02:12:57.824Z,72.38
2023-03-30T02:15:26.423Z,75.51
2023-03-30T02:17:54.483Z,76.16
2023-03-30T02:20:22.913Z,80.87
2023-03-30T02:22:51.015Z,76.80
2023-03-30T02:25:19.223Z,76.70
2023-03-30T02:27:48.319Z,76.34
2023-03-30T02:30:16.857Z,78.06
2023-03-30T02:32:47.385Z,77.27
2023-03-30T02:35:22.682Z,77.14
2023-03-30T02:38:04.508Z,75.70
2023-03-30T02:40:38.395Z,77.18
2023-03-30T02:43:18.022Z,75.51
2023-03-30T02:45:52.649Z,73.63
2023-03-30T02:48:30.754Z,73.35
2023-03-30T02:51:08.780Z,70.95
2023-03-30T02:53:41.858Z,70.79
2023-03-30T02:56:14.860Z,71.28
2023-03-30T02:58:58.690Z,68.99
2023-03-30T03:01:29.630Z,69.91
2023-03-30T03:03:59.190Z,69.74
2023-03-30T03:06:28.529Z,69.89
2023-03-30T03:08:56.777Z,69.26
2023-03-30T03:11:24.863Z,69.65
2023-03-30T03:13:52.815Z,67.67
2023-03-30T03:16:22.145Z,68.36
2023-03-30T03:18:50.485Z,69.33
2023-03-30T03:21:18.534Z,68.63
2023-03-30T03:23:48.501Z,69.85
2023-03-30T03:26:16.393Z,69.38
2023-03-30T03:28:44.893Z,69.79
2023-03-30T03:31:13.428Z,68.80
2023-03-30T03:33:42.582Z,71.28
2023-03-30T03:36:12.219Z,68.80
2023-03-30T03:38:40.714Z,69.18
2023-03-30T03:41:09.440Z,68.57
2023-03-30T03:43:37.752Z,68.69
2023-03-30T03:46:05.636Z,68.27
2023-03-30T03:48:50.264Z,69.02
2023-03-30T03:51:18.023Z,68.88
2023-03-30T03:53:47.107Z,68.61
2023-03-30T03:56:15.476Z,69.77
2023-03-30T03:58:43.153Z,71.22
2023-03-30T04:01:14.446Z,71.16
2023-03-30T04:03:42.649Z,71.15
2023-03-30T04:06:11.859Z,75.13
2023-03-30T04:08:39.574Z,72.52
2023-03-30T04:13:50.671Z,72.68
2023-03-30T04:16:18.614Z,72.19
2023-03-30T04:18:46.307Z,71.17
2023-03-30T04:21:17.749Z,71.73
2023-03-30T04:23:49.328Z,70.70
2023-03-30T04:26:17.705Z,71.12
2023-03-30T04:28:46.856Z,70.46
2023-03-30T04:31:14.799Z,69.18
2023-03-30T04:33:51.803Z,70.04
2023-03-30T04:36:22.119Z,68.91
2023-03-30T04:38:58.603Z,68.60
2023-03-30T04:41:33.605Z,68.53
2023-03-30T04:44:05.263Z,67.24
2023-03-30T04:46:33.517Z,65.80
2023-03-30T04:49:01.287Z,66.63
2023-03-30T04:51:31.499Z,66.59
2023-03-30T04:53:59.174Z,65.83
2023-03-30T04:56:27.891Z,67.40
2023-03-30T04:58:56.207Z,66.97
2023-03-30T05:01:24.380Z,68.88
2023-03-30T05:03:52.581Z,68.58
2023-03-30T05:06:21.696Z,68.90
2023-03-30T05:08:51.208Z,69.46
2023-03-30T05:11:18.911Z,69.96
2023-03-30T05:13:58.833Z,68.36
2023-03-30T05:16:27.055Z,69.76
2023-03-30T05:18:55.327Z,68.39
2023-03-30T05:21:23.209Z,68.03
2023-03-30T05:23:58.500Z,69.34
2023-03-30T05:26:26.757Z,70.53
2023-03-30T05:28:54.926Z,70.37
2023-03-30T05:31:22.808Z,71.85
2023-03-30T05:33:52.056Z,72.06
2023-03-30T05:36:20.086Z,73.06
2023-03-30T05:38:53.646Z,72.11
2023-03-30T05:41:23.236Z,73.12
2023-03-30T05:43:52.474Z,74.65
2023-03-30T05:46:20.419Z,73.45
2023-03-30T05:48:48.226Z,72.91
2023-03-30T05:51:15.956Z,73.50
2023-03-30T05:53:45.197Z,72.26
2023-03-30T05:56:13.091Z,72.15
2023-03-30T05:58:42.349Z,71.52
2023-03-30T06:01:12.023Z,71.02
2023-03-30T06:03:40.272Z,72.28
2023-03-30T06:06:09.317Z,71.08
2023-03-30T06:08:37.239Z,71.05
2023-03-30T06:11:05.290Z,69.81
2023-03-30T06:13:33.574Z,67.76
2023-03-30T06:16:03.638Z,69.13
2023-03-30T06:18:31.624Z,69.74
2023-03-30T06:21:02.372Z,68.26
2023-03-30T06:23:30.806Z,68.09
2023-03-30T06:25:59.614Z,68.04
2023-03-30T06:28:27.444Z,66.82
2023-03-30T06:30:55.139Z,66.92
2023-03-30T06:33:25.614Z,65.54
2023-03-30T06:35:54.409Z,65.67
2023-03-30T06:38:23.725Z,66.00
2023-03-30T06:40:51.586Z,66.75
2023-03-30T06:43:21.107Z,66.33
2023-03-30T06:45:52.731Z,66.10
2023-03-30T06:48:22.481Z,66.22
2023-03-30T06:50:52.174Z,64.49
2023-03-30T06:53:20.698Z,66.89
2023-03-30T06:55:51.999Z,65.84
2023-03-30T06:58:19.868Z,66.18
2023-03-30T07:00:47.593Z,66.15
2023-03-30T07:03:17.327Z,67.90
2023-03-30T07:05:45.094Z,67.90
2023-03-30T07:08:14.464Z,68.06
2023-03-30T07:10:42.605Z,68.48
2023-03-30T07:13:10.476Z,68.90
2023-03-30T07:15:38.192Z,68.25
2023-03-30T07:18:06.010Z,67.28
2023-03-30T07:20:33.676Z,68.46
2023-03-30T07:23:01.399Z,68.77
2023-03-30T07:25:30.612Z,66.99
2023-03-30T07:27:58.308Z,68.94
2023-03-30T07:30:26.199Z,71.22
2023-03-30T07:32:56.264Z,69.84
2023-03-30T07:35:25.778Z,71.04
2023-03-30T07:38:02.009Z,74.76
2023-03-30T07:40:32.399Z,83.45
2023-03-30T07:43:00.348Z,86.60
2023-03-30T07:45:28.045Z,88.99
2023-03-30T07:47:56.301Z,89.19
2023-03-30T07:50:25.574Z,90.71
2023-03-30T07:52:53.658Z,89.34
2023-03-30T07:55:21.408Z,88.12
2023-03-30T07:57:50.615Z,87.88
2023-03-30T08:00:19.311Z,89.40
2023-03-30T08:02:46.984Z,89.35
2023-03-30T08:05:15.742Z,93.24
2023-03-30T08:07:43.525Z,97.01
2023-03-30T08:10:12.085Z,94.36
2023-03-30T08:12:39.742Z,96.70
2023-03-30T08:15:12.195Z,99.45
2023-03-30T08:17:42.441Z,98.45
2023-03-30T08:20:12.970Z,100.00
2023-03-30T08:25:58.708Z,100.00
2023-03-30T08:28:27.172Z,100.00
2023-03-30T08:30:56.338Z,100.00
2023-03-30T08:33:24.453Z,100.00
2023-03-30T08:35:52.702Z,100.00
2023-03-30T08:38:20.408Z,100.00
2023-03-30T08:40:49.290Z,100.00
2023-03-30T08:43:27.269Z,100.00
2023-03-30T08:45:56.748Z,100.00
2023-03-30T08:48:27.132Z,100.00
2023-03-30T08:50:57.674Z,100.00
2023-03-30T08:53:43.933Z,100.00
2023-03-30T08:56:18.011Z,100.00
2023-03-30T08:58:51.074Z,100.00
2023-03-30T09:01:25.252Z,100.00
2023-03-30T09:04:03.709Z,100.00
2023-03-30T09:06:41.784Z,100.00
2023-03-30T09:09:12.941Z,100.00
2023-03-30T09:11:40.955Z,100.00
2023-03-30T09:14:13.079Z,100.00
2023-03-30T09:16:47.600Z,100.00
2023-03-30T09:19:20.218Z,100.00
2023-03-30T09:21:49.069Z,100.00
2023-03-30T09:24:20.336Z,100.00
2023-03-30T09:26:53.741Z,100.00
2023-03-30T09:29:26.992Z,96.73
2023-03-30T09:32:05.822Z,96.32
2023-03-30T09:34:37.901Z,96.44
2023-03-30T09:37:07.553Z,93.73
2023-03-30T09:39:36.908Z,93.18
2023-03-30T09:42:14.696Z,93.95
2023-03-30T09:44:46.168Z,95.31
2023-03-30T09:47:23.674Z,90.77
2023-03-30T09:49:56.730Z,91.60
2023-03-30T09:52:26.526Z,90.15
2023-03-30T09:54:54.228Z,87.53
2023-03-30T09:57:27.179Z,86.25
2023-03-30T09:59:55.955Z,85.23
2023-03-30T10:02:28.095Z,82.89
2023-03-30T10:05:01.675Z,84.28
2023-03-30T10:07:44.527Z,80.05
2023-03-30T10:10:17.632Z,81.04
2023-03-30T10:12:46.262Z,78.73
2023-03-30T10:15:18.061Z,74.78
2023-03-30T10:17:51.205Z,76.13
2023-03-30T10:20:26.938Z,72.84
2023-03-30T10:22:56.034Z,74.02
2023-03-30T10:25:27.205Z,73.45
2023-03-30T10:27:57.479Z,73.78
2023-03-30T10:30:28.563Z,72.98
2023-03-30T10:33:00.702Z,72.56
2023-03-30T10:35:34.479Z,68.19
2023-03-30T10:38:03.138Z,69.94
2023-03-30T10:44:13.035Z,65.07
2023-03-30T10:46:40.998Z,64.61
2023-03-30T10:49:17.733Z,67.27
2023-03-30T10:52:10.557Z,66.82
2023-03-30T10:54:42.133Z,67.93
2023-03-30T10:57:12.514Z,67.59
2023-03-30T10:59:48.764Z,68.29
2023-03-30T11:02:26.413Z,68.83
2023-03-30T11:05:00.182Z,68.10
2023-03-30T11:07:32.750Z,66.76
2023-03-30T11:10:06.267Z,67.28
2023-03-30T11:12:36.991Z,68.93
2023-03-30T11:15:08.402Z,72.73
2023-03-30T11:17:43.718Z,75.24
2023-03-30T11:20:20.872Z,77.77
2023-03-30T11:22:50.504Z,90.42
2023-03-30T11:25:21.011Z,89.04
2023-03-30T11:27:56.199Z,86.34
2023-03-30T11:30:28.540Z,87.10
2023-03-30T11:33:18.158Z,79.40
2023-03-30T11:35:48.845Z,74.16
2023-03-30T11:38:20.206Z,72.12
2023-03-30T11:40:49.052Z,70.63
2023-03-30T11:43:17.903Z,67.57
2023-03-30T11:45:54.259Z,67.76
2023-03-30T11:48:39.728Z,68.16
2023-03-30T11:51:23.812Z,68.32
2023-03-30T11:53:55.556Z,66.54
2023-03-30T11:56:30.606Z,64.60
2023-03-30T11:59:05.936Z,65.32
2023-03-30T12:01:47.450Z,66.23
2023-03-30T12:04:42.262Z,69.10
2023-03-30T12:07:22.598Z,69.18
2023-03-30T12:09:54.825Z,65.73
2023-03-30T12:12:27.208Z,62.31
2023-03-30T12:15:01.724Z,59.85
2023-03-30T12:17:36.271Z,61.27
2023-03-30T12:20:09.363Z,62.26
2023-03-30T12:22:42.326Z,61.39
2023-03-30T12:25:18.974Z,63.18
2023-03-30T12:28:12.659Z,62.41
2023-03-30T12:30:48.512Z,63.16
2023-03-30T12:33:19.494Z,60.85
2023-03-30T12:36:34.393Z,62.35
2023-03-30T12:39:05.755Z,68.02
2023-03-30T12:42:04.504Z,72.08
2023-03-30T12:45:05.859Z,73.04
2023-03-30T12:47:58.301Z,68.35
2023-03-30T12:50:39.879Z,66.82
2023-03-30T12:53:42.718Z,66.92
2023-03-30T12:56:14.537Z,65.02
2023-03-30T12:58:58.446Z,63.64
2023-03-30T13:01:52.389Z,62.55
2023-03-30T13:04:23.250Z,59.44
2023-03-30T13:06:56.771Z,58.24
2023-03-30T13:09:34.092Z,55.12
2023-03-30T13:12:26.251Z,57.06
2023-03-30T13:15:33.239Z,56.79
2023-03-30T13:18:02.151Z,59.67
2023-03-30T13:20:33.923Z,61.70
2023-03-30T13:23:07.267Z,63.89
2023-03-30T13:25:40.243Z,60.83
2023-03-30T13:29:04.367Z,62.11
2023-03-30T13:31:42.448Z,62.49
2023-03-30T13:37:13.123Z,62.00
2023-03-30T13:39:43.911Z,63.60
2023-03-30T13:42:22.022Z,63.10
2023-03-30T13:44:57.355Z,61.75
2023-03-30T13:47:37.396Z,61.97
2023-03-30T13:50:31.529Z,63.44
2023-03-30T13:53:01.351Z,63.92
2023-03-30T13:55:33.292Z,64.79
2023-03-30T13:58:04.262Z,66.48
2023-03-30T14:00:43.979Z,66.79
2023-03-30T14:03:36.082Z,76.94
2023-03-30T14:06:07.646Z,89.39
2023-03-30T14:08:37.630Z,96.48
2023-03-30T14:11:10.094Z,99.63
2023-03-30T14:13:49.666Z,100.00
2023-03-30T14:16:23.101Z,100.00
2023-03-30T14:18:52.640Z,100.00
2023-03-30T14:21:21.989Z,100.00
2023-03-30T14:23:51.390Z,100.00
2023-03-30T14:26:20.472Z,100.00
2023-03-30T14:28:50.800Z,100.00
2023-03-30T14:31:21.504Z,100.00
2023-03-30T14:33:49.402Z,100.00
2023-03-30T14:39:04.328Z,91.39
2023-03-30T14:41:32.586Z,91.48
2023-03-30T14:44:02.969Z,88.13
2023-03-30T14:46:38.507Z,72.07
2023-03-30T14:49:06.506Z,67.53
2023-03-30T14:51:40.486Z,64.56
2023-03-30T14:54:08.754Z,62.61
2023-03-30T14:56:36.597Z,60.72
2023-03-30T14:59:04.694Z,61.65
2023-03-30T15:01:34.795Z,69.44
2023-03-30T15:04:06.596Z,70.87
2023-03-30T15:06:34.398Z,65.16
2023-03-30T15:09:03.357Z,69.47
2023-03-30T15:11:32.997Z,79.32
2023-03-30T15:14:03.998Z,79.37
2023-03-30T15:16:35.921Z,87.02
2023-03-30T15:19:07.040Z,87.85
2023-03-30T15:21:36.706Z,87.65
2023-03-30T15:24:09.011Z,91.32
2023-03-30T15:26:39.257Z,90.44
2023-03-30T15:29:07.409Z,68.35
2023-03-30T15:31:36.592Z,66.64
2023-03-30T15:34:05.360Z,62.97
2023-03-30T15:36:38.919Z,60.10
2023-03-30T15:39:20.922Z,60.36
2023-03-30T15:41:50.901Z,75.72
2023-03-30T15:44:19.930Z,83.81
2023-03-30T15:46:50.427Z,88.00
2023-03-30T15:49:20.110Z,63.73
2023-03-30T15:51:49.380Z,61.10
2023-03-30T15:54:18.363Z,57.31
2023-03-30T15:56:49.533Z,58.18
2023-03-30T15:59:19.880Z,59.09
2023-03-30T16:01:53.824Z,75.83
2023-03-30T16:04:23.785Z,80.21
2023-03-30T16:06:52.540Z,84.86
2023-03-30T16:09:20.267Z,88.25
2023-03-30T16:11:48.212Z,90.23
2023-03-30T16:14:20.014Z,86.84
2023-03-30T16:16:47.935Z,93.66
2023-03-30T16:19:18.734Z,96.78
2023-03-30T16:21:46.593Z,84.80
2023-03-30T16:24:14.353Z,77.63
2023-03-30T16:26:42.129Z,76.15
2023-03-30T16:29:16.831Z,68.46
2023-03-30T16:31:44.587Z,73.12
2023-03-30T16:34:12.487Z,68.05
2023-03-30T16:36:42.290Z,66.46
2023-03-30T16:39:17.597Z,75.13
2023-03-30T16:41:46.007Z,72.00
2023-03-30T16:44:13.812Z,70.07
2023-03-30T16:46:42.570Z,70.72
2023-03-30T16:49:14.223Z,72.12
2023-03-30T16:51:43.602Z,81.13
2023-03-30T16:54:23.072Z,86.95
2023-03-30T16:56:58.045Z,88.20
2023-03-30T16:59:27.092Z,91.17
2023-03-30T17:01:54.789Z,91.33
2023-03-30T17:04:22.685Z,92.72
2023-03-30T17:06:53.705Z,94.51
2023-03-30T17:09:22.199Z,97.37
2023-03-30T17:11:50.340Z,94.89
2023-03-30T17:14:18.212Z,94.66
2023-03-30T17:16:45.960Z,99.84
2023-03-30T17:19:14.729Z,99.19
2023-03-30T17:21:43.885Z,100.00
2023-03-30T17:24:15.181Z,100.00
2023-03-30T17:26:43.053Z,100.00
2023-03-30T17:29:11.321Z,100.00
2023-03-30T17:31:39.354Z,100.00
2023-03-30T17:34:07.783Z,100.00
2023-03-30T17:36:35.509Z,100.00
2023-03-30T17:39:05.028Z,100.00
2023-03-30T17:45:17.390Z,100.00
2023-03-30T17:47:45.696Z,100.00
2023-03-30T17:50:23.122Z,100.00
2023-03-30T17:52:51.717Z,100.00
2023-03-30T17:55:20.502Z,100.00
2023-03-30T17:57:48.211Z,99.80
2023-03-30T18:00:24.950Z,100.00
2023-03-30T18:02:53.131Z,100.00
2023-03-30T18:05:23.386Z,100.00
2023-03-30T18:07:52.030Z,100.00
2023-03-30T18:10:23.358Z,100.00
2023-03-30T18:12:51.598Z,98.39
2023-03-30T18:15:22.632Z,98.11
2023-03-30T18:17:50.911Z,99.54
2023-03-30T18:20:21.974Z,99.26
2023-03-30T18:22:49.947Z,100.00
2023-03-30T18:25:29.390Z,98.41
2023-03-30T18:28:12.038Z,99.67
2023-03-30T18:30:41.276Z,100.00
2023-03-30T18:33:09.652Z,100.00
2023-03-30T18:35:38.334Z,100.00
2023-03-30T18:38:11.237Z,100.00
2023-03-30T18:40:41.707Z,100.00
2023-03-30T18:43:09.395Z,99.94
2023-03-30T18:45:49.634Z,99.60
2023-03-30T18:48:20.006Z,99.00
2023-03-30T18:50:48.995Z,100.00
2023-03-30T18:53:17.775Z,99.91
2023-03-30T18:55:46.644Z,98.99
2023-03-30T18:58:16.019Z,100.00
2023-03-30T19:00:43.904Z,100.00
2023-03-30T19:03:14.370Z,100.00
2023-03-30T19:05:42.947Z,100.00
2023-03-30T19:08:12.024Z,100.00
2023-03-30T19:10:41.614Z,100.00
2023-03-30T19:13:12.664Z,100.00
2023-03-30T19:15:47.152Z,100.00
2023-03-30T19:18:17.852Z,100.00
2023-03-30T19:20:46.303Z,100.00
2023-03-30T19:23:16.001Z,100.00
2023-03-30T19:25:44.838Z,100.00
2023-03-30T19:28:13.250Z,100.00
2023-03-30T19:30:41.138Z,100.00
2023-03-30T19:33:15.258Z,100.00
2023-03-30T19:35:45.806Z,100.00
2023-03-30T19:38:14.343Z,100.00
2023-03-30T19:40:42.413Z,100.00
2023-03-30T19:43:10.502Z,100.00
2023-03-30T19:45:38.461Z,100.00
2023-03-30T19:48:06.639Z,100.00
2023-03-30T19:50:34.809Z,100.00
2023-03-30T19:53:03.931Z,100.00
2023-03-30T19:55:33.618Z,100.00
2023-03-30T19:58:01.262Z,100.00
2023-03-30T20:00:31.405Z,100.00
2023-03-30T20:02:59.214Z,100.00
2023-03-30T20:05:27.935Z,100.00
2023-03-30T20:07:57.573Z,100.00
2023-03-30T20:10:27.232Z,100.00
2023-03-30T20:12:54.943Z,100.00
2023-03-30T20:15:24.897Z,100.00
2023-03-30T20:17:56.311Z,100.00
2023-03-30T20:20:25.377Z,100.00
2023-03-30T20:22:56.513Z,100.00
2023-03-30T20:25:26.172Z,100.00
2023-03-30T20:27:54.338Z,100.00
2023-03-30T20:30:22.609Z,100.00
2023-03-30T20:33:06.306Z,100.00
2023-03-30T20:35:47.727Z,100.00
2023-03-30T20:38:15.438Z,100.00
2023-03-30T20:40:48.451Z,100.00
2023-03-30T20:43:16.133Z,100.00
2023-03-30T20:45:48.413Z,100.00
2023-03-30T20:48:26.431Z,100.00
2023-03-30T20:50:55.382Z,100.00
2023-03-30T20:53:23.260Z,100.00
2023-03-30T20:55:52.314Z,100.00
2023-03-30T20:58:22.238Z,100.00
2023-03-30T21:00:51.913Z,100.00
2023-03-30T21:03:19.965Z,100.00
2023-03-30T21:05:47.889Z,100.00
2023-03-30T21:08:16.673Z,100.00
2023-03-30T21:10:45.050Z,100.00
2023-03-30T21:13:15.100Z,100.00
2023-03-30T21:15:42.744Z,100.00
2023-03-30T21:18:10.442Z,100.00
2023-03-30T21:20:38.277Z,100.00
2023-03-30T21:23:06.261Z,100.00
2023-03-30T21:25:33.892Z,100.00
2023-03-30T21:28:01.540Z,100.00
2023-03-30T21:30:33.254Z,100.00
2023-03-30T21:33:01.345Z,100.00
2023-03-30T21:35:50.595Z,100.00
2023-03-30T21:38:19.061Z,100.00
2023-03-30T21:41:00.803Z,100.00
2023-03-30T21:43:30.377Z,100.00
2023-03-30T21:46:00.798Z,100.00
2023-03-30T21:48:30.011Z,100.00
2023-03-30T21:51:02.008Z,100.00
2023-03-30T21:53:30.604Z,100.00
2023-03-30T21:55:58.512Z,100.00
2023-03-30T21:58:27.934Z,100.00
2023-03-30T22:01:08.860Z,100.00
2023-03-30T22:03:41.276Z,100.00
2023-03-30T22:06:10.937Z,100.00
2023-03-30T22:08:41.517Z,100.00
2023-03-30T22:11:11.788Z,100.00
2023-03-30T22:13:39.610Z,100.00
2023-03-30T22:16:09.417Z,100.00
2023-03-30T22:18:37.405Z,100.00
2023-03-30T22:21:08.290Z,100.00
2023-03-30T22:23:36.153Z,100.00
2023-03-30T22:26:04.455Z,100.00
2023-03-30T22:28:32.312Z,100.00
2023-03-30T22:31:00.011Z,100.00
2023-03-30T22:33:28.888Z,100.00
2023-03-30T22:35:57.191Z,100.00
2023-03-30T22:38:26.586Z,100.00
2023-03-30T22:41:04.628Z,100.00
2023-03-30T22:43:34.398Z,100.00
2023-03-30T22:46:02.557Z,100.00
2023-03-30T22:48:30.358Z,100.00
2023-03-30T22:51:02.187Z,100.00
2023-03-30T22:53:31.801Z,100.00
2023-03-30T22:55:59.610Z,100.00
2023-03-30T22:58:27.331Z,100.00
2023-03-30T23:01:00.929Z,100.00
2023-03-30T23:03:28.833Z,100.00
2023-03-30T23:06:00.981Z,100.00
2023-03-30T23:08:29.512Z,100.00
2023-03-30T23:11:04.298Z,100.00
2023-03-30T23:13:32.661Z,100.00
2023-03-30T23:16:01.553Z,100.00
2023-03-30T23:18:29.316Z,100.00
2023-03-30T23:20:58.019Z,100.00
2023-03-30T23:23:25.964Z,100.00
2023-03-30T23:25:54.103Z,100.00
2023-03-30T23:28:23.180Z,100.00
2023-03-30T23:30:51.259Z,100.00
2023-03-30T23:33:18.935Z,100.00
2023-03-30T23:35:49.508Z,100.00
2023-03-30T23:38:17.207Z,100.00
2023-03-30T23:40:45.493Z,100.00
2023-03-30T23:43:13.122Z,100.00
2023-03-30T23:45:43.164Z,100.00
2023-03-30T23:48:10.798Z,100.00
2023-03-30T23:50:38.460Z,100.00
2023-03-30T23:53:07.017Z,100.00
2023-03-30T23:55:34.746Z,100.00
2023-03-30T23:58:04.941Z,100.00
